sensor_id;sensor_type;location;lat;lon;timestamp;P1;durP1;ratioP1;P2;durP2;ratioP2
37715;SDS011;23562;50.540;12.504;2023-04-12T00:02:24;6.90;;;1.63;;
37715;SDS011;23562;50.540;12.504;2023-04-12T00:04:51;4.05;;;1.60;;
37715;SDS011;23562;50.540;12.504;2023-04-12T00:07:20;4.18;;;1.90;;
37715;SDS011;23562;50.540;12.504;2023-04-12T00:09:45;4.18;;;1.45;;
37715;SDS011;23562;50.540;12.504;2023-04-12T00:12:10;4.28;;;1.55;;
37715;SDS011;23562;50.540;12.504;2023-04-12T00:14:35;4.67;;;1.83;;
37715;SDS011;23562;50.540;12.504;2023-04-12T00:17:01;5.50;;;1.85;;
37715;SDS011;23562;50.540;12.504;2023-04-12T00:19:26;4.20;;;1.60;;
37715;SDS011;23562;50.540;12.504;2023-04-12T00:21:51;5.03;;;1.65;;
37715;SDS011;23562;50.540;12.504;2023-04-12T00:24:16;4.25;;;1.50;;
37715;SDS011;23562;50.540;12.504;2023-04-12T00:26:43;4.32;;;1.60;;
37715;SDS011;23562;50.540;12.504;2023-04-12T00:29:08;5.75;;;1.80;;
37715;SDS011;23562;50.540;12.504;2023-04-12T00:31:33;3.53;;;1.48;;
37715;SDS011;23562;50.540;12.504;2023-04-12T00:34:00;7.68;;;1.70;;
37715;SDS011;23562;50.540;12.504;2023-04-12T00:36:25;6.35;;;1.75;;
37715;SDS011;23562;50.540;12.504;2023-04-12T00:38:51;4.43;;;1.52;;
37715;SDS011;23562;50.540;12.504;2023-04-12T00:41:16;4.05;;;1.58;;
37715;SDS011;23562;50.540;12.504;2023-04-12T00:43:41;7.25;;;1.70;;
37715;SDS011;23562;50.540;12.504;2023-04-12T00:46:06;5.87;;;1.60;;
37715;SDS011;23562;50.540;12.504;2023-04-12T00:48:32;6.13;;;1.83;;
37715;SDS011;23562;50.540;12.504;2023-04-12T00:50:57;5.85;;;1.63;;
37715;SDS011;23562;50.540;12.504;2023-04-12T00:53:24;8.68;;;1.90;;
37715;SDS011;23562;50.540;12.504;2023-04-12T00:55:49;6.40;;;1.90;;
37715;SDS011;23562;50.540;12.504;2023-04-12T00:58:15;9.00;;;1.90;;
37715;SDS011;23562;50.540;12.504;2023-04-12T01:00:41;6.68;;;1.65;;
37715;SDS011;23562;50.540;12.504;2023-04-12T01:03:13;8.00;;;2.25;;
37715;SDS011;23562;50.540;12.504;2023-04-12T01:05:42;7.63;;;1.70;;
37715;SDS011;23562;50.540;12.504;2023-04-12T01:10:47;2.20;;;1.38;;
37715;SDS011;23562;50.540;12.504;2023-04-12T01:15:57;5.00;;;1.85;;
37715;SDS011;23562;50.540;12.504;2023-04-12T01:18:24;5.82;;;1.65;;
37715;SDS011;23562;50.540;12.504;2023-04-12T01:20:53;6.10;;;1.60;;
37715;SDS011;23562;50.540;12.504;2023-04-12T01:23:26;9.23;;;1.80;;
37715;SDS011;23562;50.540;12.504;2023-04-12T01:26:11;6.85;;;1.80;;
37715;SDS011;23562;50.540;12.504;2023-04-12T01:28:41;4.05;;;1.80;;
37715;SDS011;23562;50.540;12.504;2023-04-12T01:31:06;8.32;;;1.75;;
37715;SDS011;23562;50.540;12.504;2023-04-12T01:33:33;3.42;;;1.75;;
37715;SDS011;23562;50.540;12.504;2023-04-12T01:36:03;6.25;;;1.90;;
37715;SDS011;23562;50.540;12.504;2023-04-12T01:38:30;5.00;;;2.45;;
37715;SDS011;23562;50.540;12.504;2023-04-12T01:40:55;3.60;;;1.73;;
37715;SDS011;23562;50.540;12.504;2023-04-12T01:43:20;7.95;;;1.83;;
37715;SDS011;23562;50.540;12.504;2023-04-12T01:45:46;5.55;;;1.98;;
37715;SDS011;23562;50.540;12.504;2023-04-12T01:48:11;8.03;;;1.93;;
37715;SDS011;23562;50.540;12.504;2023-04-12T01:56:17;6.03;;;1.98;;
37715;SDS011;23562;50.540;12.504;2023-04-12T01:58:43;2.97;;;1.48;;
37715;SDS011;23562;50.540;12.504;2023-04-12T02:01:11;6.50;;;2.17;;
37715;SDS011;23562;50.540;12.504;2023-04-12T02:03:38;6.22;;;1.95;;
37715;SDS011;23562;50.540;12.504;2023-04-12T02:06:04;5.03;;;2.10;;
37715;SDS011;23562;50.540;12.504;2023-04-12T02:08:29;6.78;;;2.30;;
37715;SDS011;23562;50.540;12.504;2023-04-12T02:10:54;6.13;;;2.08;;
37715;SDS011;23562;50.540;12.504;2023-04-12T02:13:20;9.60;;;2.07;;
37715;SDS011;23562;50.540;12.504;2023-04-12T02:15:58;2.70;;;1.70;;
37715;SDS011;23562;50.540;12.504;2023-04-12T02:18:23;8.43;;;2.10;;
37715;SDS011;23562;50.540;12.504;2023-04-12T02:20:48;4.37;;;1.93;;
37715;SDS011;23562;50.540;12.504;2023-04-12T02:23:13;6.27;;;1.83;;
37715;SDS011;23562;50.540;12.504;2023-04-12T02:25:39;4.80;;;1.75;;
37715;SDS011;23562;50.540;12.504;2023-04-12T02:28:05;9.43;;;2.05;;
37715;SDS011;23562;50.540;12.504;2023-04-12T02:30:30;5.03;;;1.58;;
37715;SDS011;23562;50.540;12.504;2023-04-12T02:32:55;6.93;;;1.95;;
37715;SDS011;23562;50.540;12.504;2023-04-12T02:35:22;3.97;;;1.90;;
37715;SDS011;23562;50.540;12.504;2023-04-12T02:37:48;7.68;;;1.77;;
37715;SDS011;23562;50.540;12.504;2023-04-12T02:40:14;8.77;;;2.60;;
37715;SDS011;23562;50.540;12.504;2023-04-12T02:42:39;6.85;;;2.50;;
37715;SDS011;23562;50.540;12.504;2023-04-12T02:45:05;9.57;;;2.58;;
37715;SDS011;23562;50.540;12.504;2023-04-12T02:47:30;8.55;;;2.38;;
37715;SDS011;23562;50.540;12.504;2023-04-12T02:49:56;7.53;;;2.50;;
37715;SDS011;23562;50.540;12.504;2023-04-12T02:52:21;5.13;;;2.10;;
37715;SDS011;23562;50.540;12.504;2023-04-12T02:54:48;7.05;;;2.42;;
37715;SDS011;23562;50.540;12.504;2023-04-12T02:57:13;5.07;;;1.83;;
37715;SDS011;23562;50.540;12.504;2023-04-12T02:59:40;6.40;;;1.70;;
37715;SDS011;23562;50.540;12.504;2023-04-12T03:02:05;9.43;;;2.58;;
37715;SDS011;23562;50.540;12.504;2023-04-12T03:04:30;9.50;;;2.38;;
37715;SDS011;23562;50.540;12.504;2023-04-12T03:06:56;6.15;;;2.47;;
37715;SDS011;23562;50.540;12.504;2023-04-12T03:09:22;6.93;;;2.88;;
37715;SDS011;23562;50.540;12.504;2023-04-12T03:11:47;6.70;;;1.85;;
37715;SDS011;23562;50.540;12.504;2023-04-12T03:14:12;5.93;;;2.07;;
37715;SDS011;23562;50.540;12.504;2023-04-12T03:16:37;5.23;;;2.43;;
37715;SDS011;23562;50.540;12.504;2023-04-12T03:19:02;5.78;;;2.30;;
37715;SDS011;23562;50.540;12.504;2023-04-12T03:21:28;5.25;;;1.77;;
37715;SDS011;23562;50.540;12.504;2023-04-12T03:23:53;7.03;;;1.87;;
37715;SDS011;23562;50.540;12.504;2023-04-12T03:26:18;8.30;;;2.00;;
37715;SDS011;23562;50.540;12.504;2023-04-12T03:28:44;5.88;;;2.10;;
37715;SDS011;23562;50.540;12.504;2023-04-12T03:31:09;7.00;;;2.22;;
37715;SDS011;23562;50.540;12.504;2023-04-12T03:33:36;6.40;;;1.65;;
37715;SDS011;23562;50.540;12.504;2023-04-12T03:36:01;9.25;;;1.90;;
37715;SDS011;23562;50.540;12.504;2023-04-12T03:38:27;8.97;;;1.87;;
37715;SDS011;23562;50.540;12.504;2023-04-12T03:40:52;4.57;;;1.75;;
37715;SDS011;23562;50.540;12.504;2023-04-12T03:43:17;10.25;;;1.90;;
37715;SDS011;23562;50.540;12.504;2023-04-12T03:45:42;5.25;;;1.98;;
37715;SDS011;23562;50.540;12.504;2023-04-12T03:48:07;9.77;;;2.42;;
37715;SDS011;23562;50.540;12.504;2023-04-12T03:50:32;10.20;;;2.50;;
37715;SDS011;23562;50.540;12.504;2023-04-12T03:53:06;6.93;;;2.67;;
37715;SDS011;23562;50.540;12.504;2023-04-12T03:55:31;4.70;;;2.25;;
37715;SDS011;23562;50.540;12.504;2023-04-12T03:57:56;7.28;;;2.80;;
37715;SDS011;23562;50.540;12.504;2023-04-12T04:00:21;15.15;;;4.07;;
37715;SDS011;23562;50.540;12.504;2023-04-12T04:02:47;10.73;;;3.77;;
37715;SDS011;23562;50.540;12.504;2023-04-12T04:05:12;8.20;;;2.47;;
37715;SDS011;23562;50.540;12.504;2023-04-12T04:07:37;4.07;;;1.97;;
37715;SDS011;23562;50.540;12.504;2023-04-12T04:10:02;5.10;;;1.92;;
37715;SDS011;23562;50.540;12.504;2023-04-12T04:12:29;8.93;;;2.35;;
37715;SDS011;23562;50.540;12.504;2023-04-12T04:14:54;6.60;;;1.57;;
37715;SDS011;23562;50.540;12.504;2023-04-12T04:17:19;9.75;;;2.15;;
37715;SDS011;23562;50.540;12.504;2023-04-12T04:19:44;14.70;;;5.88;;
37715;SDS011;23562;50.540;12.504;2023-04-12T04:22:10;15.38;;;6.25;;
37715;SDS011;23562;50.540;12.504;2023-04-12T04:24:37;53.60;;;20.20;;
37715;SDS011;23562;50.540;12.504;2023-04-12T04:27:03;92.27;;;30.10;;
37715;SDS011;23562;50.540;12.504;2023-04-12T04:29:28;162.32;;;59.45;;
37715;SDS011;23562;50.540;12.504;2023-04-12T04:31:54;59.72;;;23.33;;
37715;SDS011;23562;50.540;12.504;2023-04-12T04:34:19;91.57;;;37.70;;
37715;SDS011;23562;50.540;12.504;2023-04-12T04:36:45;14.27;;;5.80;;
37715;SDS011;23562;50.540;12.504;2023-04-12T04:39:11;12.20;;;5.23;;
37715;SDS011;23562;50.540;12.504;2023-04-12T04:41:36;14.23;;;7.47;;
37715;SDS011;23562;50.540;12.504;2023-04-12T04:44:04;12.65;;;5.25;;
37715;SDS011;23562;50.540;12.504;2023-04-12T04:46:33;8.55;;;4.70;;
37715;SDS011;23562;50.540;12.504;2023-04-12T04:49:01;10.18;;;3.38;;
37715;SDS011;23562;50.540;12.504;2023-04-12T04:51:27;12.40;;;3.30;;
37715;SDS011;23562;50.540;12.504;2023-04-12T04:53:53;12.27;;;3.70;;
37715;SDS011;23562;50.540;12.504;2023-04-12T04:56:18;10.57;;;3.85;;
37715;SDS011;23562;50.540;12.504;2023-04-12T04:58:43;6.60;;;3.20;;
37715;SDS011;23562;50.540;12.504;2023-04-12T05:01:08;7.45;;;3.25;;
37715;SDS011;23562;50.540;12.504;2023-04-12T05:03:36;10.95;;;3.80;;
37715;SDS011;23562;50.540;12.504;2023-04-12T05:06:04;12.13;;;3.78;;
37715;SDS011;23562;50.540;12.504;2023-04-12T05:08:30;7.35;;;3.38;;
37715;SDS011;23562;50.540;12.504;2023-04-12T05:10:58;9.50;;;3.30;;
37715;SDS011;23562;50.540;12.504;2023-04-12T05:13:23;12.80;;;3.47;;
37715;SDS011;23562;50.540;12.504;2023-04-12T05:15:49;9.98;;;3.25;;
37715;SDS011;23562;50.540;12.504;2023-04-12T05:18:14;9.73;;;3.25;;
37715;SDS011;23562;50.540;12.504;2023-04-12T05:20:39;10.17;;;2.80;;
37715;SDS011;23562;50.540;12.504;2023-04-12T05:23:04;6.95;;;2.90;;
37715;SDS011;23562;50.540;12.504;2023-04-12T05:25:30;14.38;;;3.28;;
37715;SDS011;23562;50.540;12.504;2023-04-12T05:27:55;10.35;;;3.03;;
37715;SDS011;23562;50.540;12.504;2023-04-12T05:30:20;10.48;;;3.00;;
37715;SDS011;23562;50.540;12.504;2023-04-12T05:32:45;9.00;;;2.80;;
37715;SDS011;23562;50.540;12.504;2023-04-12T05:35:10;5.80;;;2.58;;
37715;SDS011;23562;50.540;12.504;2023-04-12T05:37:35;7.22;;;2.40;;
37715;SDS011;23562;50.540;12.504;2023-04-12T05:40:00;9.23;;;2.33;;
37715;SDS011;23562;50.540;12.504;2023-04-12T05:42:26;8.23;;;2.47;;
37715;SDS011;23562;50.540;12.504;2023-04-12T05:44:52;10.43;;;2.90;;
37715;SDS011;23562;50.540;12.504;2023-04-12T05:47:19;13.55;;;2.63;;
37715;SDS011;23562;50.540;12.504;2023-04-12T05:49:45;9.75;;;3.05;;
37715;SDS011;23562;50.540;12.504;2023-04-12T05:52:10;8.07;;;2.10;;
37715;SDS011;23562;50.540;12.504;2023-04-12T05:54:35;7.30;;;2.58;;
37715;SDS011;23562;50.540;12.504;2023-04-12T05:57:00;7.07;;;2.45;;
37715;SDS011;23562;50.540;12.504;2023-04-12T06:01:59;10.57;;;2.25;;
37715;SDS011;23562;50.540;12.504;2023-04-12T06:04:24;8.57;;;2.27;;
37715;SDS011;23562;50.540;12.504;2023-04-12T06:06:50;5.17;;;2.40;;
37715;SDS011;23562;50.540;12.504;2023-04-12T06:09:15;12.43;;;2.55;;
37715;SDS011;23562;50.540;12.504;2023-04-12T06:11:40;9.30;;;2.80;;
37715;SDS011;23562;50.540;12.504;2023-04-12T06:14:05;8.05;;;2.30;;
37715;SDS011;23562;50.540;12.504;2023-04-12T06:16:30;10.10;;;2.70;;
37715;SDS011;23562;50.540;12.504;2023-04-12T06:21:58;8.35;;;3.72;;
37715;SDS011;23562;50.540;12.504;2023-04-12T06:24:24;10.60;;;3.70;;
37715;SDS011;23562;50.540;12.504;2023-04-12T06:26:49;12.87;;;2.10;;
37715;SDS011;23562;50.540;12.504;2023-04-12T06:29:14;10.95;;;2.00;;
37715;SDS011;23562;50.540;12.504;2023-04-12T06:31:39;8.55;;;1.90;;
37715;SDS011;23562;50.540;12.504;2023-04-12T06:34:04;9.43;;;2.25;;
37715;SDS011;23562;50.540;12.504;2023-04-12T06:36:30;9.70;;;2.27;;
37715;SDS011;23562;50.540;12.504;2023-04-12T06:38:55;9.93;;;2.00;;
37715;SDS011;23562;50.540;12.504;2023-04-12T06:41:20;9.90;;;2.28;;
37715;SDS011;23562;50.540;12.504;2023-04-12T06:43:45;5.13;;;2.30;;
37715;SDS011;23562;50.540;12.504;2023-04-12T06:46:11;7.30;;;1.70;;
37715;SDS011;23562;50.540;12.504;2023-04-12T06:48:36;6.15;;;2.35;;
37715;SDS011;23562;50.540;12.504;2023-04-12T06:51:01;7.45;;;2.42;;
37715;SDS011;23562;50.540;12.504;2023-04-12T06:53:26;5.53;;;2.30;;
37715;SDS011;23562;50.540;12.504;2023-04-12T06:55:51;9.85;;;2.25;;
37715;SDS011;23562;50.540;12.504;2023-04-12T06:58:17;8.43;;;2.38;;
37715;SDS011;23562;50.540;12.504;2023-04-12T07:00:42;4.55;;;2.20;;
37715;SDS011;23562;50.540;12.504;2023-04-12T07:03:07;7.47;;;2.28;;
37715;SDS011;23562;50.540;12.504;2023-04-12T07:05:33;7.00;;;2.30;;
37715;SDS011;23562;50.540;12.504;2023-04-12T07:08:01;10.82;;;2.15;;
37715;SDS011;23562;50.540;12.504;2023-04-12T07:10:26;4.53;;;1.90;;
37715;SDS011;23562;50.540;12.504;2023-04-12T07:12:51;8.98;;;2.63;;
37715;SDS011;23562;50.540;12.504;2023-04-12T07:15:16;11.63;;;2.60;;
37715;SDS011;23562;50.540;12.504;2023-04-12T07:17:41;8.05;;;2.63;;
37715;SDS011;23562;50.540;12.504;2023-04-12T07:20:07;6.93;;;2.73;;
37715;SDS011;23562;50.540;12.504;2023-04-12T07:22:32;11.77;;;2.85;;
37715;SDS011;23562;50.540;12.504;2023-04-12T07:24:57;10.80;;;2.60;;
37715;SDS011;23562;50.540;12.504;2023-04-12T07:27:22;11.98;;;2.80;;
37715;SDS011;23562;50.540;12.504;2023-04-12T07:29:49;6.82;;;2.45;;
37715;SDS011;23562;50.540;12.504;2023-04-12T07:32:15;7.93;;;2.25;;
37715;SDS011;23562;50.540;12.504;2023-04-12T07:34:40;10.98;;;2.65;;
37715;SDS011;23562;50.540;12.504;2023-04-12T07:37:05;7.80;;;2.30;;
37715;SDS011;23562;50.540;12.504;2023-04-12T07:39:30;11.27;;;2.22;;
37715;SDS011;23562;50.540;12.504;2023-04-12T07:41:56;9.13;;;2.28;;
37715;SDS011;23562;50.540;12.504;2023-04-12T07:44:21;5.40;;;1.98;;
37715;SDS011;23562;50.540;12.504;2023-04-12T07:46:46;10.43;;;2.28;;
37715;SDS011;23562;50.540;12.504;2023-04-12T07:49:11;9.25;;;2.35;;
37715;SDS011;23562;50.540;12.504;2023-04-12T07:51:37;11.03;;;2.40;;
37715;SDS011;23562;50.540;12.504;2023-04-12T07:54:02;11.02;;;2.53;;
37715;SDS011;23562;50.540;12.504;2023-04-12T07:56:28;11.00;;;3.67;;
37715;SDS011;23562;50.540;12.504;2023-04-12T07:58:53;7.30;;;3.05;;
37715;SDS011;23562;50.540;12.504;2023-04-12T08:01:18;5.47;;;2.97;;
37715;SDS011;23562;50.540;12.504;2023-04-12T08:03:43;10.82;;;2.55;;
37715;SDS011;23562;50.540;12.504;2023-04-12T08:06:08;5.53;;;2.60;;
37715;SDS011;23562;50.540;12.504;2023-04-12T08:08:33;13.33;;;4.10;;
37715;SDS011;23562;50.540;12.504;2023-04-12T08:10:59;5.97;;;2.80;;
37715;SDS011;23562;50.540;12.504;2023-04-12T08:13:26;8.25;;;2.70;;
37715;SDS011;23562;50.540;12.504;2023-04-12T08:15:51;9.30;;;2.90;;
37715;SDS011;23562;50.540;12.504;2023-04-12T08:18:16;12.05;;;3.15;;
37715;SDS011;23562;50.540;12.504;2023-04-12T08:20:42;11.02;;;2.70;;
37715;SDS011;23562;50.540;12.504;2023-04-12T08:23:08;5.93;;;2.70;;
37715;SDS011;23562;50.540;12.504;2023-04-12T08:25:33;7.45;;;2.97;;
37715;SDS011;23562;50.540;12.504;2023-04-12T08:27:58;8.30;;;2.83;;
37715;SDS011;23562;50.540;12.504;2023-04-12T08:30:24;10.63;;;2.75;;
37715;SDS011;23562;50.540;12.504;2023-04-12T08:32:51;6.53;;;2.40;;
37715;SDS011;23562;50.540;12.504;2023-04-12T08:35:16;8.65;;;2.38;;
37715;SDS011;23562;50.540;12.504;2023-04-12T08:37:41;5.18;;;2.58;;
37715;SDS011;23562;50.540;12.504;2023-04-12T08:40:06;13.43;;;2.92;;
37715;SDS011;23562;50.540;12.504;2023-04-12T08:42:35;8.60;;;2.60;;
37715;SDS011;23562;50.540;12.504;2023-04-12T08:45:04;13.45;;;3.67;;
37715;SDS011;23562;50.540;12.504;2023-04-12T08:47:30;11.48;;;5.88;;
37715;SDS011;23562;50.540;12.504;2023-04-12T08:49:56;10.40;;;5.88;;
37715;SDS011;23562;50.540;12.504;2023-04-12T08:52:21;9.88;;;2.67;;
37715;SDS011;23562;50.540;12.504;2023-04-12T08:54:46;12.27;;;2.90;;
37715;SDS011;23562;50.540;12.504;2023-04-12T08:57:11;13.00;;;2.42;;
37715;SDS011;23562;50.540;12.504;2023-04-12T08:59:38;7.40;;;2.47;;
37715;SDS011;23562;50.540;12.504;2023-04-12T09:02:03;12.82;;;2.95;;
37715;SDS011;23562;50.540;12.504;2023-04-12T09:04:28;7.88;;;2.58;;
37715;SDS011;23562;50.540;12.504;2023-04-12T09:06:54;8.23;;;2.80;;
37715;SDS011;23562;50.540;12.504;2023-04-12T09:09:31;7.07;;;2.35;;
37715;SDS011;23562;50.540;12.504;2023-04-12T09:12:07;7.13;;;2.22;;
37715;SDS011;23562;50.540;12.504;2023-04-12T09:14:32;10.35;;;2.90;;
37715;SDS011;23562;50.540;12.504;2023-04-12T09:16:57;8.75;;;2.70;;
37715;SDS011;23562;50.540;12.504;2023-04-12T09:19:32;10.65;;;2.78;;
37715;SDS011;23562;50.540;12.504;2023-04-12T09:21:57;11.55;;;2.60;;
37715;SDS011;23562;50.540;12.504;2023-04-12T09:24:22;5.20;;;2.05;;
37715;SDS011;23562;50.540;12.504;2023-04-12T09:26:48;7.30;;;2.67;;
37715;SDS011;23562;50.540;12.504;2023-04-12T09:29:21;9.23;;;2.80;;
37715;SDS011;23562;50.540;12.504;2023-04-12T09:31:53;6.82;;;2.85;;
37715;SDS011;23562;50.540;12.504;2023-04-12T09:34:18;9.52;;;2.72;;
37715;SDS011;23562;50.540;12.504;2023-04-12T09:36:44;8.10;;;2.90;;
37715;SDS011;23562;50.540;12.504;2023-04-12T09:39:09;10.40;;;2.90;;
37715;SDS011;23562;50.540;12.504;2023-04-12T09:41:34;10.52;;;2.90;;
37715;SDS011;23562;50.540;12.504;2023-04-12T09:44:00;8.25;;;2.60;;
37715;SDS011;23562;50.540;12.504;2023-04-12T09:46:25;7.85;;;3.25;;
37715;SDS011;23562;50.540;12.504;2023-04-12T09:48:51;8.35;;;2.65;;
37715;SDS011;23562;50.540;12.504;2023-04-12T09:51:29;8.50;;;3.00;;
37715;SDS011;23562;50.540;12.504;2023-04-12T09:53:57;6.13;;;3.08;;
37715;SDS011;23562;50.540;12.504;2023-04-12T09:56:23;7.15;;;2.95;;
37715;SDS011;23562;50.540;12.504;2023-04-12T09:58:50;11.15;;;2.53;;
37715;SDS011;23562;50.540;12.504;2023-04-12T10:01:15;8.10;;;2.85;;
37715;SDS011;23562;50.540;12.504;2023-04-12T10:03:41;8.63;;;2.42;;
37715;SDS011;23562;50.540;12.504;2023-04-12T10:06:07;6.63;;;2.92;;
37715;SDS011;23562;50.540;12.504;2023-04-12T10:08:33;7.20;;;3.00;;
37715;SDS011;23562;50.540;12.504;2023-04-12T10:11:00;9.60;;;3.25;;
37715;SDS011;23562;50.540;12.504;2023-04-12T10:13:26;6.07;;;2.95;;
37715;SDS011;23562;50.540;12.504;2023-04-12T10:15:52;7.95;;;3.00;;
37715;SDS011;23562;50.540;12.504;2023-04-12T10:18:18;8.45;;;2.53;;
37715;SDS011;23562;50.540;12.504;2023-04-12T10:20:44;3.47;;;2.00;;
37715;SDS011;23562;50.540;12.504;2023-04-12T10:23:10;5.60;;;2.10;;
37715;SDS011;23562;50.540;12.504;2023-04-12T10:25:36;8.10;;;2.30;;
37715;SDS011;23562;50.540;12.504;2023-04-12T10:28:12;6.78;;;2.42;;
37715;SDS011;23562;50.540;12.504;2023-04-12T10:30:37;5.30;;;2.20;;
37715;SDS011;23562;50.540;12.504;2023-04-12T10:35:49;9.38;;;3.35;;
37715;SDS011;23562;50.540;12.504;2023-04-12T10:38:14;6.55;;;2.70;;
37715;SDS011;23562;50.540;12.504;2023-04-12T10:43:24;5.95;;;2.92;;
37715;SDS011;23562;50.540;12.504;2023-04-12T10:45:53;6.18;;;2.83;;
37715;SDS011;23562;50.540;12.504;2023-04-12T10:51:16;5.50;;;2.97;;
37715;SDS011;23562;50.540;12.504;2023-04-12T10:53:45;8.32;;;3.45;;
37715;SDS011;23562;50.540;12.504;2023-04-12T10:58:54;5.00;;;2.40;;
37715;SDS011;23562;50.540;12.504;2023-04-12T11:01:20;5.78;;;3.00;;
37715;SDS011;23562;50.540;12.504;2023-04-12T11:06:53;7.90;;;2.78;;
37715;SDS011;23562;50.540;12.504;2023-04-12T11:09:21;6.32;;;2.45;;
37715;SDS011;23562;50.540;12.504;2023-04-12T11:11:47;5.32;;;2.50;;
37715;SDS011;23562;50.540;12.504;2023-04-12T11:14:15;7.40;;;2.90;;
37715;SDS011;23562;50.540;12.504;2023-04-12T11:19:24;5.72;;;2.90;;
37715;SDS011;23562;50.540;12.504;2023-04-12T11:21:50;8.73;;;2.70;;
37715;SDS011;23562;50.540;12.504;2023-04-12T11:24:15;4.85;;;2.70;;
37715;SDS011;23562;50.540;12.504;2023-04-12T11:26:40;4.65;;;2.72;;
37715;SDS011;23562;50.540;12.504;2023-04-12T11:29:06;3.95;;;2.00;;
37715;SDS011;23562;50.540;12.504;2023-04-12T11:31:32;4.32;;;2.63;;
37715;SDS011;23562;50.540;12.504;2023-04-12T11:33:58;24.20;;;12.35;;
37715;SDS011;23562;50.540;12.504;2023-04-12T11:36:23;13.45;;;7.35;;
37715;SDS011;23562;50.540;12.504;2023-04-12T11:38:50;9.52;;;5.68;;
37715;SDS011;23562;50.540;12.504;2023-04-12T11:41:16;29.50;;;16.35;;
37715;SDS011;23562;50.540;12.504;2023-04-12T11:43:42;15.50;;;8.07;;
37715;SDS011;23562;50.540;12.504;2023-04-12T11:46:08;16.08;;;8.85;;
37715;SDS011;23562;50.540;12.504;2023-04-12T11:48:33;6.97;;;3.40;;
37715;SDS011;23562;50.540;12.504;2023-04-12T11:51:17;5.07;;;2.92;;
37715;SDS011;23562;50.540;12.504;2023-04-12T11:53:43;5.97;;;2.70;;
37715;SDS011;23562;50.540;12.504;2023-04-12T11:56:08;4.47;;;2.30;;
37715;SDS011;23562;50.540;12.504;2023-04-12T11:58:34;3.10;;;1.93;;
37715;SDS011;23562;50.540;12.504;2023-04-12T12:00:59;3.97;;;2.30;;
37715;SDS011;23562;50.540;12.504;2023-04-12T12:03:24;3.45;;;1.83;;
37715;SDS011;23562;50.540;12.504;2023-04-12T12:05:50;5.15;;;2.50;;
37715;SDS011;23562;50.540;12.504;2023-04-12T12:08:15;3.85;;;2.17;;
37715;SDS011;23562;50.540;12.504;2023-04-12T12:10:40;4.90;;;2.33;;
37715;SDS011;23562;50.540;12.504;2023-04-12T12:13:12;5.63;;;3.33;;
37715;SDS011;23562;50.540;12.504;2023-04-12T12:15:37;6.00;;;3.10;;
37715;SDS011;23562;50.540;12.504;2023-04-12T12:18:02;4.57;;;2.67;;
37715;SDS011;23562;50.540;12.504;2023-04-12T12:20:27;4.13;;;2.30;;
37715;SDS011;23562;50.540;12.504;2023-04-12T12:22:52;5.82;;;3.05;;
37715;SDS011;23562;50.540;12.504;2023-04-12T12:25:18;10.63;;;4.60;;
37715;SDS011;23562;50.540;12.504;2023-04-12T12:27:43;5.03;;;2.53;;
37715;SDS011;23562;50.540;12.504;2023-04-12T12:30:15;4.72;;;2.22;;
37715;SDS011;23562;50.540;12.504;2023-04-12T12:32:40;4.13;;;2.28;;
37715;SDS011;23562;50.540;12.504;2023-04-12T12:35:09;2.47;;;1.77;;
37715;SDS011;23562;50.540;12.504;2023-04-12T12:37:35;5.72;;;1.73;;
37715;SDS011;23562;50.540;12.504;2023-04-12T12:40:01;3.95;;;2.00;;
37715;SDS011;23562;50.540;12.504;2023-04-12T12:44:56;3.67;;;1.60;;
37715;SDS011;23562;50.540;12.504;2023-04-12T12:47:21;2.90;;;2.03;;
37715;SDS011;23562;50.540;12.504;2023-04-12T12:49:46;2.42;;;1.33;;
37715;SDS011;23562;50.540;12.504;2023-04-12T12:52:11;3.88;;;2.42;;
37715;SDS011;23562;50.540;12.504;2023-04-12T12:54:36;4.03;;;1.70;;
37715;SDS011;23562;50.540;12.504;2023-04-12T12:57:02;3.50;;;1.70;;
37715;SDS011;23562;50.540;12.504;2023-04-12T12:59:28;5.78;;;3.10;;
37715;SDS011;23562;50.540;12.504;2023-04-12T13:01:53;5.22;;;2.40;;
37715;SDS011;23562;50.540;12.504;2023-04-12T13:04:18;6.60;;;2.95;;
37715;SDS011;23562;50.540;12.504;2023-04-12T13:06:43;4.47;;;2.35;;
37715;SDS011;23562;50.540;12.504;2023-04-12T13:09:08;2.58;;;1.85;;
37715;SDS011;23562;50.540;12.504;2023-04-12T13:11:33;9.38;;;3.92;;
37715;SDS011;23562;50.540;12.504;2023-04-12T13:13:58;4.73;;;3.10;;
37715;SDS011;23562;50.540;12.504;2023-04-12T13:16:24;3.13;;;2.17;;
37715;SDS011;23562;50.540;12.504;2023-04-12T13:18:49;3.85;;;2.38;;
37715;SDS011;23562;50.540;12.504;2023-04-12T13:21:14;1.58;;;1.40;;
37715;SDS011;23562;50.540;12.504;2023-04-12T13:23:40;3.97;;;2.20;;
37715;SDS011;23562;50.540;12.504;2023-04-12T13:26:05;4.60;;;2.25;;
37715;SDS011;23562;50.540;12.504;2023-04-12T13:28:30;3.67;;;2.28;;
37715;SDS011;23562;50.540;12.504;2023-04-12T13:30:56;4.63;;;2.83;;
37715;SDS011;23562;50.540;12.504;2023-04-12T13:33:21;11.88;;;5.60;;
37715;SDS011;23562;50.540;12.504;2023-04-12T13:35:46;18.90;;;7.40;;
37715;SDS011;23562;50.540;12.504;2023-04-12T13:38:11;30.42;;;14.75;;
37715;SDS011;23562;50.540;12.504;2023-04-12T13:40:36;5.33;;;2.10;;
37715;SDS011;23562;50.540;12.504;2023-04-12T13:43:01;9.75;;;5.78;;
37715;SDS011;23562;50.540;12.504;2023-04-12T13:45:26;10.07;;;5.67;;
37715;SDS011;23562;50.540;12.504;2023-04-12T13:47:52;6.93;;;4.30;;
37715;SDS011;23562;50.540;12.504;2023-04-12T13:50:17;15.18;;;8.50;;
37715;SDS011;23562;50.540;12.504;2023-04-12T13:52:42;12.47;;;7.47;;
37715;SDS011;23562;50.540;12.504;2023-04-12T13:55:07;4.35;;;2.80;;
37715;SDS011;23562;50.540;12.504;2023-04-12T13:57:33;10.50;;;5.07;;
37715;SDS011;23562;50.540;12.504;2023-04-12T13:59:59;5.45;;;3.20;;
37715;SDS011;23562;50.540;12.504;2023-04-12T14:02:24;9.40;;;2.10;;
37715;SDS011;23562;50.540;12.504;2023-04-12T14:04:50;6.03;;;3.47;;
37715;SDS011;23562;50.540;12.504;2023-04-12T14:07:16;3.72;;;2.47;;
37715;SDS011;23562;50.540;12.504;2023-04-12T14:09:42;2.50;;;2.05;;
37715;SDS011;23562;50.540;12.504;2023-04-12T14:12:07;2.88;;;1.80;;
37715;SDS011;23562;50.540;12.504;2023-04-12T14:14:32;4.20;;;2.13;;
37715;SDS011;23562;50.540;12.504;2023-04-12T14:16:57;1.92;;;1.58;;
37715;SDS011;23562;50.540;12.504;2023-04-12T14:19:22;5.25;;;2.60;;
37715;SDS011;23562;50.540;12.504;2023-04-12T14:21:48;2.35;;;1.80;;
37715;SDS011;23562;50.540;12.504;2023-04-12T14:24:14;2.45;;;1.65;;
37715;SDS011;23562;50.540;12.504;2023-04-12T14:26:40;3.50;;;1.70;;
37715;SDS011;23562;50.540;12.504;2023-04-12T14:29:05;5.60;;;3.27;;
37715;SDS011;23562;50.540;12.504;2023-04-12T14:31:30;9.60;;;5.00;;
37715;SDS011;23562;50.540;12.504;2023-04-12T14:33:56;4.50;;;2.53;;
37715;SDS011;23562;50.540;12.504;2023-04-12T14:36:21;4.32;;;3.17;;
37715;SDS011;23562;50.540;12.504;2023-04-12T14:38:46;4.25;;;1.80;;
37715;SDS011;23562;50.540;12.504;2023-04-12T14:41:11;5.13;;;2.57;;
37715;SDS011;23562;50.540;12.504;2023-04-12T14:43:37;4.15;;;2.10;;
37715;SDS011;23562;50.540;12.504;2023-04-12T14:46:03;3.40;;;2.10;;
37715;SDS011;23562;50.540;12.504;2023-04-12T14:48:28;3.17;;;1.90;;
37715;SDS011;23562;50.540;12.504;2023-04-12T14:50:53;2.97;;;2.03;;
37715;SDS011;23562;50.540;12.504;2023-04-12T14:53:21;2.70;;;2.00;;
37715;SDS011;23562;50.540;12.504;2023-04-12T14:55:47;2.50;;;1.77;;
37715;SDS011;23562;50.540;12.504;2023-04-12T14:58:12;3.50;;;2.00;;
37715;SDS011;23562;50.540;12.504;2023-04-12T15:00:38;3.50;;;2.22;;